ADDS METAR Data INFO
IDs: Format: Raw Decoded Include TAF

Data at: 0937 UTC 11 Dec 2017

PABA 110852Z AUTO 08029KT 2SM -SN BR OVC013 M13/M14 A2994 RMK AO2 PK WND 08036/0756 SLP126 P0000 60000 T11281144 411281150 56018 FZRANO TSNO
PABA 110800Z AUTO 07030G35KT 2SM -SN BR OVC013 M13/M14 A2994 RMK AO2 PK WND 08036/0756 P0000 FZRANO TSNO
PABA 110752Z AUTO 08029KT 1 3/4SM -SN BR OVC013 M13/M15 A2995 RMK AO2 PK WND 08037/0727 SLP126 P0000 T11331150 FZRANO TSNO
PABA 110724Z AUTO 08031KT 1 3/4SM -SN BR OVC013 M13/M15 A2995 RMK AO2 PK WND 08036/0719 P0000 FZRANO TSNO
PABA 110652Z AUTO 08032G36KT 2SM -SN BR OVC013 M13/M15 A2997 RMK AO2 PK WND 08036/0645 VIS 1 1/2V2 1/2 SLP134 P0000 T11331150 FZRANO TSNO
PABA 110552Z AUTO 07028KT 2 1/2SM -SN BR OVC013 M13/M15 A3000 RMK AO2 PK WND 07034/0515 VIS 2V3 SLP143 P0000 60000 T11331150 11133 21150 56028 FZRANO TSNO
PABA 110544Z AUTO 07029KT 2 1/2SM -SN BR OVC013 M13/M15 A3001 RMK AO2 PK WND 07034/0515 P0000 FZRANO TSNO $
PABA 110537Z AUTO 07028KT 3SM -SN BR OVC013 M13/M15 A3000 RMK AO2 PK WND 07034/0515 P0000 FZRANO TSNO
PABA 110519Z AUTO 07026KT 2SM -SN BR OVC013 M13/M15 A3001 RMK AO2 PK WND 07034/0515 P0000 FZRANO TSNO
PABA 110511Z AUTO 07027KT 1 3/4SM -SN BR OVC013 M14/M16 A3000 RMK AO2 PK WND 08034/0500 P0000 FZRANO TSNO
PABA 110452Z AUTO 07028KT 2SM -SN BR OVC013 M14/M16 A3002 RMK AO2 PK WND 07035/0433 SLP152 P0000 T11391156 FZRANO TSNO
PABA 110352Z AUTO 07029KT 2 1/2SM -SN BR OVC013 M14/M16 A3005 RMK AO2 PK WND 07034/0328 VIS 2V3 SLP162 P0000 T11441161 FZRANO TSNO $
PABA 110314Z AUTO 07029KT 2 1/2SM -SN BR OVC013 M14/M17 A3006 RMK AO2 PK WND 07032/0312 VIS 2V4 P0000 FZRANO TSNO
PABA 110301Z AUTO 07029KT 4SM -SN BR OVC013 M15/M17 A3007 RMK AO2 PK WND 07032/0259 P0000 FZRANO TSNO
PABA 110252Z AUTO 07028KT 3SM -SN BR OVC015 M15/M17 A3008 RMK AO2 PK WND 07033/0239 SLP172 P0000 60000 T11501167 56005 FZRANO TSNO
PABA 110249Z AUTO 07027KT 3SM -SN BR OVC015 M15/M17 A3008 RMK AO2 PK WND 07033/0239 P0000 FZRANO TSNO
PABA 110241Z AUTO 07028KT 2 1/2SM -SN BR OVC015 M15/M17 A3008 RMK AO2 PK WND 07033/0239 VIS 2 1/2V3 P0000 FZRANO TSNO
PABA 110204Z AUTO 07026KT 3SM -SN BR OVC015 M15/M17 A3008 RMK AO2 PK WND 07032/0156 P0000 FZRANO TSNO
PABA 110152Z AUTO 07027KT 2 1/2SM -SN BR OVC015 M15/M17 A3008 RMK AO2 PK WND 07033/0053 VIS 2V4 SLP172 P0000 T11501167 FZRANO TSNO
PABA 110131Z AUTO 07027KT 3SM -SN BR OVC015 M15/M17 A3009 RMK AO2 PK WND 07033/0053 P0000 FZRANO TSNO
PABA 110125Z AUTO 07025KT 3SM -SN BR OVC013 M15/M17 A3009 RMK AO2 PK WND 07033/0053 P0000 FZRANO TSNO
PABA 110121Z AUTO 07029KT 2 1/2SM -SN BR OVC013 M15/M17 A3008 RMK AO2 PK WND 07033/0053 VIS 2V4 P0000 FZRANO TSNO
PABA 110115Z AUTO 07028KT 3SM -SN BR OVC013 M15/M17 A3008 RMK AO2 PK WND 07033/0053 P0000 FZRANO TSNO
PABA 110052Z AUTO 07030G34KT 2SM -SN BR OVC013 M15/M17 A3008 RMK AO2 PK WND 07035/0033 SLP173 P0000 T11501167 FZRANO TSNO $
PABA 110011Z AUTO 07026G32KT 1 1/4SM -SN BR OVC011 M15/M17 A3010 RMK AO2 PK WND 07035/0001 CIG 009V013 P0000 FZRANO TSNO
PABA 110007Z AUTO 07028KT 1SM -SN BR OVC011 M15/M17 A3010 RMK AO2 PK WND 07035/0001 P0000 FZRANO TSNO
PABA 102352Z AUTO 07031KT 1 1/4SM -SN BR OVC011 M15/M17 A3010 RMK AO2 PK WND 07035/2311 SLP176 P0000 60000 T11501167 11139 21150 58010 FZRANO TSNO $
PABA 102315Z AUTO 07030G35KT 1 1/4SM -SN BR OVC013 M15/M17 A3011 RMK AO2 PK WND 07035/2311 P0000 FZRANO TSNO $
PABA 102301Z AUTO 07029KT 1SM -SN BR OVC013 M15/M17 A3012 RMK AO2 PK WND 07033/2253 P0000 FZRANO TSNO
PABA 102258Z AUTO 07028KT 3/4SM -SN BR OVC013 M15/M17 A3012 RMK AO2 PK WND 07033/2253 P0000 FZRANO TSNO
PABA 102252Z AUTO 07030KT 1/2SM -SN FZFG OVC013 M15/M17 A3012 RMK AO2 PK WND 07034/2248 SLP185 P0000 T11501167 FZRANO TSNO
PABA 102249Z AUTO 07030KT 1/2SM -SN FZFG OVC013 M15/M17 RMK AO2 PK WND 07034/2248 P0000 FZRANO TSNO $
PABA 102219Z AUTO 07029KT 1/2SM -SN FZFG OVC015 M15/M17 A3012 RMK AO2 PK WND 07032/2219 P0000 FZRANO TSNO $
PABA 102209Z AUTO 07027KT 3/4SM -SN BR OVC015 M15/M17 A3013 RMK AO2 PK WND 08032/2207 P0000 FZRANO TSNO
PABA 102152Z AUTO 07028KT 1SM -SN BR OVC015 M14/M17 A3012 RMK AO2 PK WND 08031/2142 SLP184 P0000 T11441167 FZRANO TSNO
PABA 102147Z AUTO 07026KT 1SM -SN BR OVC015 M14/M17 A3012 RMK AO2 PK WND 08031/2142 P0000 FZRANO TSNO
PABA 102143Z AUTO 08027KT 3/4SM -SN BR OVC015 M14/M17 A3012 RMK AO2 PK WND 08031/2142 P0000 FZRANO TSNO
PABA 102131Z AUTO 08027KT 1SM -SN BR OVC017 M14/M16 A3012 RMK AO2 PK WND 07031/2101 P0000 FZRANO TSNO
PABA 102052Z AUTO 07025KT 1 1/2SM -SN BR OVC017 M14/M16 A3013 RMK AO2 PK WND 07030/2044 SLP187 P0000 60000 T11441161 50001 FZRANO TSNO
PABA 102030Z AUTO 07026KT 1 3/4SM -SN BR OVC015 M14/M16 A3012 RMK AO2 PK WND 07030/2022 P0000 FZRANO TSNO
PABA 102023Z AUTO 07027KT 2 1/2SM -SN BR OVC015 M14/M16 A3012 RMK AO2 PK WND 07030/2022 P0000 FZRANO TSNO
PABA 102010Z AUTO 07026KT 3SM -SN BR BKN011 OVC017 M14/M16 A3014 RMK AO2 PK WND 07030/2000 P0000 FZRANO TSNO
PABA 101952Z AUTO 07025KT 2 1/2SM -SN BR BKN011 OVC017 M14/M16 A3013 RMK AO2 PK WND 07032/1901 VIS 2V3 SLP187 P0000 T11441156 FZRANO TSNO
PABA 101932Z AUTO 07024KT 2SM -SN BR OVC013 M14/M16 A3013 RMK AO2 PK WND 07032/1901 P0000 FZRANO TSNO
PABA 101927Z AUTO 07026KT 1 3/4SM -SN BR BKN011 OVC016 M14/M16 A3012 RMK AO2 PK WND 07032/1901 P0000 FZRANO TSNO
PABA 101923Z AUTO 07027KT 2SM -SN BR OVC013 M14/M16 A3012 RMK AO2 PK WND 07032/1901 P0000 FZRANO TSNO
PABA 101859Z AUTO 07026KT 1 3/4SM -SN BR OVC013 M14/M16 A3013 RMK AO2 PK WND 07030/1853 P0000 FZRANO TSNO
PABA 101852Z AUTO 07024KT 2SM -SN BR OVC013 M14/M16 A3013 RMK AO2 PK WND 07029/1849 SLP187 P0000 T11391156 FZRANO TSNO
PABA 101820Z AUTO 08023KT 2SM -SN BR OVC011 M14/M16 A3012 RMK AO2 PK WND 07029/1810 VIS 1 3/4V3 P0000 FZRANO TSNO
PABA 101752Z AUTO 07022KT 1 1/4SM -SN BR OVC011 M14/M16 A3012 RMK AO2 PK WND 07027/1745 SLP186 P0000 60000 T11391156 11139 21144 53014 FZRANO TSNO
PABA 101734Z AUTO 07022KT 1 1/4SM -SN BR OVC011 M14/M16 A3012 RMK AO2 PK WND 07027/1722 P0000 FZRANO TSNO
PABA 101709Z AUTO 07024KT 1SM -SN BR OVC011 M14/M16 A3011 RMK AO2 PK WND 07026/1702 CIG 008V012 P0000 FZRANO TSNO
PABA 101701Z AUTO 07023KT 1 1/2SM -SN BR OVC011 M14/M16 A3011 RMK AO2 CIG 008V012 P0000 FZRANO TSNO
PABA 101652Z AUTO 08022KT 2SM -SN BR OVC011 M14/M16 A3011 RMK AO2 PK WND 07026/1649 SLP180 P0000 T11391156 FZRANO TSNO
PABA 101646Z AUTO 08024KT 2SM -SN BR OVC011 M14/M16 A3010 RMK AO2 PK WND 08026/1612 P0000 FZRANO TSNO
PABA 101633Z AUTO 08021KT 2SM -SN BR OVC009 M14/M16 A3011 RMK AO2 PK WND 08026/1612 VIS 1 1/2V3 CIG 007V012 P0000 FZRANO TSNO
PABA 101616Z AUTO 07023KT 1 1/4SM -SN BR OVC009 M14/M16 A3010 RMK AO2 PK WND 08026/1612 CIG 007V012 P0000 FZRANO TSNO
PABA 101611Z AUTO 07022KT 1SM -SN BR OVC011 M14/M16 A3010 RMK AO2 CIG 007V012 P0000 FZRANO TSNO
PABA 101552Z AUTO 07021KT 1 3/4SM -SN BR OVC013 M14/M16 A3010 RMK AO2 PK WND 08027/1500 SLP177 P0000 T11391156 FZRANO TSNO
PABA 101539Z AUTO 08020KT 2SM -SN BR OVC013 M14/M16 A3009 RMK AO2 PK WND 08027/1500 P0000 FZRANO TSNO
PABA 101517Z AUTO 07023KT 1 1/4SM -SN BR OVC013 M14/M16 A3009 RMK AO2 PK WND 08027/1500 P0000 FZRANO TSNO
PABA 101514Z AUTO 07022KT 1SM -SN BR OVC013 M14/M16 A3008 RMK AO2 PK WND 08027/1500 P0000 FZRANO TSNO
PABA 101509Z AUTO 07023KT 1SM -SN BR OVC015 M14/M16 A3008 RMK AO2 PK WND 08027/1500 P0000 FZRANO TSNO
PABA 101452Z AUTO 07025KT 1 1/4SM -SN BR OVC015 M14/M16 A3008 RMK AO2 PK WND 07028/1445 SLP172 P0000 60000 T11441161 58006 FZRANO TSNO
PABA 101447Z AUTO 07024KT 1 1/4SM -SN BR OVC017 M14/M16 A3008 RMK AO2 PK WND 07028/1445 P0000 FZRANO TSNO
PABA 101422Z AUTO 07023KT 1SM -SN BR OVC017 M14/M16 A3009 RMK AO2 PK WND 07028/1412 P0000 FZRANO TSNO
PABA 101415Z AUTO 07022KT 3/4SM -SN BR OVC017 M14/M16 A3009 RMK AO2 PK WND 07028/1412 P0000 FZRANO TSNO
PABA 101352Z AUTO 07024KT 1SM -SN BR OVC017 M14/M16 A3009 RMK AO2 PK WND 06030/1310 SLP176 P0000 T11391161 FZRANO TSNO $
PABA 101339Z AUTO 07023KT 1 3/4SM -SN BR OVC017 M14/M16 A3007 RMK AO2 PK WND 06030/1310 PRESFR P0000 FZRANO TSNO
PABA 101257Z AUTO 06025KT 2 1/2SM -SN BR OVC017 M14/M16 A3009 RMK AO2 PK WND 06029/1255 VIS 1 3/4V4 P0000 FZRANO TSNO
PABA 101252Z AUTO 06025KT 3SM -SN BR OVC020 M14/M16 A3009 RMK AO2 PK WND 06028/1251 SLP176 P0000 T11391156 FZRANO TSNO
PABA 101214Z AUTO 06024KT 3SM -SN BR OVC016 M14/M16 A3010 RMK AO2 PK WND 06027/1211 P0000 FZRANO TSNO
PABA 101207Z AUTO 06024KT 2 1/2SM -SN BR OVC014 M14/M16 A3010 RMK AO2 PK WND 06027/1158 VIS 1 3/4V4 P0000 FZRANO TSNO
PABA 101152Z AUTO 06024KT 3SM -SN BR OVC014 M14/M16 A3010 RMK AO2 PK WND 06028/1145 SLP178 P0000 60000 T11391156 11139 21144 50007 FZRANO TSNO
PABA 101109Z AUTO 06023KT 4SM -SN BR OVC014 M14/M16 A3010 RMK AO2 PK WND 06026/1108 P0000 FZRANO TSNO
PABA 101052Z AUTO 06024KT 4SM -SN BR OVC016 M14/M16 A3010 RMK AO2 PK WND 06026/1051 SLP178 P0000 T11441161 FZRANO TSNO
PABA 100952Z AUTO 06023KT 3SM -SN BR OVC016 M14/M16 A3009 RMK AO2 PK WND 06026/0948 SLP175 P0000 T11441161 FZRANO TSNO
PABA 100903Z AUTO 06019KT 3SM -SN BR OVC018 M14/M16 A3008 RMK AO2 P0000 FZRANO TSNO
PABA 100857Z AUTO 06021KT 2 1/2SM -SN BR OVC018 M14/M16 A3009 RMK AO2 VIS 2V4 P0000 FZRANO TSNO
PABA 100852Z AUTO 06023KT 1 3/4SM -SN BR OVC020 M14/M16 A3008 RMK AO2 PK WND 06026/0850 SLP170 P0000 60000 T11441161 411281161 53001 FZRANO TSNO
PABA 100847Z AUTO 06022KT 1 3/4SM -SN BR OVC020 M14/M16 A3008 RMK AO2 PK WND 06026/0833 P0000 FZRANO TSNO
PABA 100841Z AUTO 06022KT 2 1/2SM -SN BR OVC018 M14/M16 A3007 RMK AO2 PK WND 06026/0833 VIS 1 1/2V4 P0000 FZRANO TSNO
PABA 100832Z AUTO 06023KT 4SM -SN BR BKN016 OVC021 M14/M16 A3008 RMK AO2 P0000 FZRANO TSNO
PABA 100806Z AUTO 06021KT 4SM -SN BR OVC014 M14/M16 A3007 RMK AO2 P0000 FZRANO TSNO
PABA 100752Z AUTO 06020KT 4SM -SN BR OVC016 M14/M16 A3007 RMK AO2 SLP166 P0000 T11391156 FZRANO TSNO
PABA 100652Z AUTO 06021KT 4SM -SN BR OVC016 M14/M16 A3006 RMK AO2 SLP166 P0000 T11441161 FZRANO TSNO
PABA 100552Z AUTO 06018KT 5SM -SN BR OVC016 M14/M16 A3007 RMK AO2 SLP169 P0000 60000 T11441161 11144 21156 53004 FZRANO TSNO
PABA 100507Z AUTO 07020KT 3SM -SN BR OVC016 M14/M17 A3007 RMK AO2 P0000 FZRANO TSNO
PABA 100501Z AUTO 07020KT 2 1/2SM -SN BR OVC018 M14/M16 A3007 RMK AO2 VIS 2V3 P0000 FZRANO TSNO
PABA 100452Z AUTO 07021KT 3SM -SN BR OVC018 M14/M16 A3007 RMK AO2 SLP167 P0000 T11441161 FZRANO TSNO
PABA 100438Z AUTO 07021KT 3SM -SN BR OVC016 M15/M17 A3007 RMK AO2 P0000 FZRANO TSNO
PABA 100417Z AUTO 07019KT 2SM -SN BR OVC016 M15/M17 A3007 RMK AO2 P0000 FZRANO TSNO
PABA 100352Z AUTO 07019KT 1 1/4SM -SN BR OVC016 M15/M17 A3006 RMK AO2 SLP165 P0000 T11501167 FZRANO TSNO
PABA 100336Z AUTO 07019KT 1SM -SN BR OVC016 M15/M17 A3006 RMK AO2 P0000 FZRANO TSNO
PABA 100322Z AUTO 07021KT 1 3/4SM -SN BR OVC016 M15/M17 A3007 RMK AO2 P0000 FZRANO TSNO
PABA 100315Z AUTO 06019KT 1 3/4SM -SN BR OVC014 M15/M17 A3008 RMK AO2 P0000 FZRANO TSNO
PABA 100252Z AUTO 07018KT 2 1/2SM -SN BR OVC014 M15/M17 A3008 RMK AO2 SLP172 P0000 60000 T11501167 53003 FZRANO TSNO
PABA 100237Z AUTO 07020KT 2 1/2SM -SN BR OVC014 M15/M17 A3007 RMK AO2 P0000 FZRANO TSNO
PABA 100200Z AUTO 07023KT 4SM -SN BR BKN014 BKN050 OVC090 M16/M17 A3005 RMK AO2 P0000 FZRANO TSNO
PABA 100152Z AUTO 08022KT 4SM -SN BR SCT014 BKN050 OVC090 M16/M17 A3005 RMK AO2 SLP162 P0000 T11561172 FZRANO TSNO
PABA 100118Z AUTO 07022KT 4SM -SN BR FEW012 SCT022 OVC055 M15/M17 A3006 RMK AO2 P0000 FZRANO TSNO
PABA 100109Z AUTO 07022KT 5SM -SN BR SCT012 BKN022 OVC050 M15/M17 A3006 RMK AO2 P0000 FZRANO TSNO
PABA 100052Z AUTO 08020KT 5SM -SN BR BKN012 OVC022 M15/M17 A3006 RMK AO2 SLP165 P0000 T11501167 FZRANO TSNO
PABA 092352Z AUTO 07020KT 4SM -SN BR OVC014 M15/M17 A3007 RMK AO2 SLP168 P0000 60000 T11501167 11150 21161 58002 FZRANO TSNO
PABA 092346Z AUTO 07019KT 3SM -SN BR OVC014 M15/M17 A3008 RMK AO2 P0000 FZRANO TSNO
PABA 092327Z AUTO 08020KT 3SM -SN BR FEW009 OVC016 M15/M17 A3008 RMK AO2 P0000 FZRANO TSNO
PABA 092322Z AUTO 08019KT 3SM -SN BR FEW009 OVC014 M15/M17 A3008 RMK AO2 P0000 FZRANO TSNO
PABA 092313Z AUTO 07020KT 2SM -SN BR FEW009 OVC014 M16/M17 A3008 RMK AO2 P0000 FZRANO TSNO
PABA 092309Z AUTO 07020KT 1 3/4SM -SN BR SCT009 OVC014 M16/M17 A3008 RMK AO2 P0000 FZRANO TSNO
PABA 092303Z AUTO 07018KT 2SM -SN BR SCT009 OVC014 M16/M17 A3009 RMK AO2 P0000 FZRANO TSNO
PABA 092252Z AUTO 07019KT 2SM -SN BR BKN009 OVC014 M16/M17 A3008 RMK AO2 SLP172 P0000 T11561172 FZRANO TSNO
PABA 092235Z AUTO 07020KT 2 1/2SM -SN BR BKN009 OVC013 M16/M17 A3009 RMK AO2 VIS 2V4 P0000 FZRANO TSNO
PABA 092224Z AUTO 07020KT 3SM -SN BR BKN009 OVC013 M16/M17 A3008 RMK AO2 CIG 008V012 P0000 FZRANO TSNO
PABA 092152Z AUTO 07021KT 7SM -SN OVC013 M16/M17 A3008 RMK AO2 SLP173 P0000 T11561172 FZRANO TSNO